Terminal Aerodrome Forecast
Issued by NWS

Home | Current Version | Previous Version | Text Only | Print | Product List | Glossary On
Versions: 1 2 3 4 5 6 7 8 9 10 11 12 13 14 15 16 17 18 19
000
FTUS41 KBTV 202327
TAFRUT
TAF
KRUT 202327Z 2100/2124 13007KT P6SM BKN020 OVC022
     FM210400 14004KT P6SM OVC015
      TEMPO 2108/2112 3SM BR OVC010
     FM211500 VRB06KT P6SM SCT015 BKN020
     FM212100 31004KT P6SM SCT020 BKN028=

USA.gov is the U.S. government's official web portal to all federal, state and local government web resources and services.